Time,TemperatureF,DewpointF,PressureIn,WindDirection,WindDirectionDegrees,WindSpeedMPH,WindSpeedGustMPH,Humidity,HourlyPrecipIn,Conditions,Clouds,dailyrainin,SoftwareType,DateUTC
2013-04-25 00:00:00,48.0,24.9,29.85,WSW,252,3.0,3.0,40,0.00,,,0.01,VWS V12.07,2013-04-25 05:00:00,
2013-04-25 00:15:00,48.0,24.9,29.86,WSW,252,3.0,3.0,40,0.00,,,0.01,VWS V12.07,2013-04-25 05:15:00,
2013-04-25 00:30:00,48.0,24.9,29.86,WSW,252,3.0,3.0,40,0.00,,,0.01,VWS V12.07,2013-04-25 05:30:00,
2013-04-25 00:45:00,48.0,24.9,29.86,WSW,252,3.0,3.0,40,0.00,,,0.00,VWS V12.07,2013-04-25 05:45:00,
2013-04-25 01:00:00,48.0,24.9,29.86,WSW,252,3.0,3.0,40,0.00,,,0.00,VWS V12.07,2013-04-25 06:00:00,
2013-04-25 01:15:00,48.0,24.9,29.86,WSW,252,3.0,3.0,40,0.00,,,0.00,VWS V12.07,2013-04-25 06:15:00,
2013-04-25 01:30:00,48.0,24.9,29.87,WSW,252,3.0,3.0,40,0.00,,,0.00,VWS V12.07,2013-04-25 06:30:00,
2013-04-25 01:45:00,48.0,24.9,29.87,WSW,252,3.0,3.0,40,0.00,,,0.00,VWS V12.07,2013-04-25 06:45:00,
2013-04-25 02:00:00,48.0,24.9,29.87,WSW,252,3.0,3.0,40,0.00,,,0.00,VWS V12.07,2013-04-25 07:00:00,
2013-04-25 02:15:00,48.0,24.9,29.87,WSW,252,3.0,3.0,40,0.00,,,0.00,VWS V12.07,2013-04-25 07:15:00,
2013-04-25 02:30:00,48.0,24.9,29.87,WSW,252,3.0,3.0,40,0.00,,,0.00,VWS V12.07,2013-04-25 07:30:00,
2013-04-25 02:45:00,48.0,24.9,29.87,WSW,252,3.0,3.0,40,0.00,,,0.00,VWS V12.07,2013-04-25 07:45:00,
2013-04-25 03:00:00,48.0,24.9,29.88,WSW,252,3.0,3.0,40,0.00,,,0.00,VWS V12.07,2013-04-25 08:00:00,
2013-04-25 03:30:00,48.0,24.9,29.88,WSW,252,3.0,3.0,40,0.00,,,0.00,VWS V12.07,2013-04-25 08:30:00,
2013-04-25 03:45:00,48.0,24.9,29.88,WSW,252,3.0,3.0,40,0.00,,,0.00,VWS V12.07,2013-04-25 08:45:00,
2013-04-25 04:00:00,48.0,24.9,29.90,WSW,252,3.0,3.0,40,0.00,,,0.00,VWS V12.07,2013-04-25 09:00:00,
2013-04-25 04:30:00,48.0,24.9,29.90,WSW,252,3.0,3.0,40,0.00,,,0.00,VWS V12.07,2013-04-25 09:30:00,
2013-04-25 04:45:00,48.0,24.9,29.90,WSW,252,3.0,3.0,40,0.00,,,0.00,VWS V12.07,2013-04-25 09:45:00,
2013-04-25 05:00:00,48.0,24.9,29.91,WSW,252,3.0,3.0,40,0.00,,,0.00,VWS V12.07,2013-04-25 10:00:00,
2013-04-25 05:30:00,48.0,24.9,29.92,WSW,252,3.0,3.0,40,0.00,,,0.00,VWS V12.07,2013-04-25 10:30:00,
2013-04-25 05:45:00,48.0,24.9,29.92,WSW,252,3.0,3.0,40,0.00,,,0.00,VWS V12.07,2013-04-25 10:45:00,
2013-04-25 06:00:00,48.0,24.9,29.94,WSW,252,3.0,3.0,40,0.00,,,0.00,VWS V12.07,2013-04-25 11:00:00,
2013-04-25 06:30:00,48.0,24.9,29.99,WSW,252,3.0,3.0,40,0.00,,,0.00,VWS V12.07,2013-04-25 11:30:00,
2013-04-25 06:45:00,48.0,24.9,29.97,WSW,252,3.0,3.0,40,0.00,,,0.00,VWS V12.07,2013-04-25 11:45:00,
2013-04-25 07:00:00,48.0,24.9,29.98,WSW,252,3.0,3.0,40,0.00,,,0.00,VWS V12.07,2013-04-25 12:00:00,
2013-04-25 07:30:00,48.0,24.9,30.00,WSW,252,3.0,3.0,40,0.00,,,0.00,VWS V12.07,2013-04-25 12:30:00,
2013-04-25 07:45:00,48.0,24.9,30.00,WSW,252,3.0,3.0,40,0.00,,,0.00,VWS V12.07,2013-04-25 12:45:00,
2013-04-25 08:00:00,48.0,24.9,29.99,WSW,252,3.0,3.0,40,0.00,,,0.00,VWS V12.07,2013-04-25 13:00:00,
2013-04-25 08:15:00,48.0,24.9,30.00,WSW,252,3.0,3.0,40,0.00,,,0.00,VWS V12.07,2013-04-25 13:15:00,
2013-04-25 08:30:00,48.0,24.9,30.01,WSW,252,3.0,3.0,40,0.00,,,0.00,VWS V12.07,2013-04-25 13:30:00,
2013-04-25 08:45:00,48.0,24.9,30.02,WSW,252,3.0,3.0,40,0.00,,,0.00,VWS V12.07,2013-04-25 13:45:00,
2013-04-25 09:00:00,48.0,24.9,30.03,WSW,252,3.0,3.0,40,0.00,,,0.00,VWS V12.07,2013-04-25 14:00:00,
2013-04-25 09:30:00,48.0,24.9,30.04,WSW,252,3.0,3.0,40,0.00,,,0.00,VWS V12.07,2013-04-25 14:30:00,
2013-04-25 09:45:00,48.0,24.9,30.04,WSW,252,3.0,3.0,40,0.00,,,0.00,VWS V12.07,2013-04-25 14:45:00,
2013-04-25 10:00:00,48.0,24.9,30.05,WSW,252,3.0,3.0,40,0.00,,,0.00,VWS V12.07,2013-04-25 15:00:00,
2013-04-25 10:30:00,48.0,24.9,30.06,WSW,252,3.0,3.0,40,0.00,,,0.00,VWS V12.07,2013-04-25 15:30:00,
2013-04-25 10:45:00,48.0,24.9,30.06,WSW,252,3.0,3.0,40,0.00,,,0.00,VWS V12.07,2013-04-25 15:45:00,
2013-04-25 11:00:00,48.0,24.9,30.07,WSW,252,3.0,3.0,40,0.00,,,0.00,VWS V12.07,2013-04-25 16:00:00,
2013-04-25 11:30:00,48.0,24.9,30.08,WSW,252,3.0,3.0,40,0.00,,,0.00,VWS V12.07,2013-04-25 16:30:00,
2013-04-25 11:45:00,48.0,24.9,30.09,WSW,252,3.0,3.0,40,0.00,,,0.00,VWS V12.07,2013-04-25 16:45:00,
2013-04-25 12:00:00,48.0,24.9,30.09,WSW,252,3.0,3.0,40,0.00,,,0.00,VWS V12.07,2013-04-25 17:00:00,
2013-04-25 12:30:00,39.5,28.4,30.09,West,268,5.0,11.0,64,0.00,,,0.00,VWS V12.07,2013-04-25 17:30:00,
2013-04-25 12:45:00,40.3,27.9,30.13,SW,226,11.0,13.0,61,0.00,,,0.00,VWS V12.07,2013-04-25 17:45:00,
2013-04-25 13:00:00,42.2,28.1,30.12,WSW,237,6.0,15.0,57,0.00,,,0.00,VWS V12.07,2013-04-25 18:00:00,
2013-04-25 13:30:00,43.3,27.8,30.11,WSW,257,2.0,13.0,54,0.00,,,0.00,VWS V12.07,2013-04-25 18:30:00,
2013-04-25 13:45:00,41.3,28.5,30.11,West,264,2.0,15.0,60,0.00,,,0.00,VWS V12.07,2013-04-25 18:45:00,
2013-04-25 14:00:00,42.5,27.5,30.11,NW,312,2.0,15.0,55,0.00,,,0.00,VWS V12.07,2013-04-25 19:00:00,
2013-04-25 14:30:00,44.8,27.3,30.11,WSW,252,10.0,13.0,50,0.00,,,0.00,VWS V12.07,2013-04-25 19:30:00,
2013-04-25 14:45:00,43.9,26.0,30.11,SW,225,4.0,12.0,49,0.00,,,0.00,VWS V12.07,2013-04-25 19:45:00,
2013-04-25 15:00:00,43.6,25.7,30.11,SSW,199,13.0,17.0,49,0.00,,,0.00,VWS V12.07,2013-04-25 20:00:00,
2013-04-25 15:30:00,44.5,26.0,30.10,WSW,257,6.0,15.0,48,0.00,,,0.00,VWS V12.07,2013-04-25 20:30:00,
2013-04-25 15:45:00,44.5,26.5,30.10,SSW,209,10.0,19.0,49,0.00,,,0.00,VWS V12.07,2013-04-25 20:45:00,
2013-04-25 16:00:00,44.6,27.1,30.10,West,260,5.0,19.0,50,0.00,,,0.00,VWS V12.07,2013-04-25 21:00:00,
2013-04-25 16:30:00,46.5,26.3,30.10,West,276,4.0,18.0,45,0.00,,,0.00,VWS V12.07,2013-04-25 21:30:00,
2013-04-25 16:45:00,46.8,26.6,30.09,West,274,3.0,13.0,45,0.00,,,0.00,VWS V12.07,2013-04-25 21:45:00,
2013-04-25 17:00:00,47.1,25.8,30.09,SW,221,3.0,18.0,43,0.00,,,0.00,VWS V12.07,2013-04-25 22:00:00,
2013-04-25 17:15:00,46.7,26.0,30.09,WSW,250,3.0,14.0,44,0.00,,,0.00,VWS V12.07,2013-04-25 22:15:00,
2013-04-25 17:30:00,47.4,25.5,30.08,SSE,162,9.0,16.0,42,0.00,,,0.00,VWS V12.07,2013-04-25 22:30:00,
2013-04-25 17:45:00,46.8,25.5,30.08,SSE,159,13.0,15.0,43,0.00,,,0.00,VWS V12.07,2013-04-25 22:45:00,
2013-04-25 18:00:00,46.8,25.5,30.08,South,179,11.0,16.0,43,0.00,,,0.00,VWS V12.07,2013-04-25 23:00:00,
2013-04-25 18:30:00,47.3,25.4,30.08,SW,229,2.0,16.0,42,0.00,,,0.00,VWS V12.07,2013-04-25 23:30:00,
2013-04-25 18:45:00,47.1,25.2,30.08,SSW,196,3.0,15.0,42,0.00,,,0.00,VWS V12.07,2013-04-25 23:45:00,
2013-04-25 19:00:00,47.1,25.8,30.08,South,189,3.0,17.0,43,0.00,,,0.00,VWS V12.07,2013-04-26 00:00:00,
2013-04-25 19:30:00,46.8,25.5,30.08,SW,222,3.0,13.0,43,0.00,,,0.00,VWS V12.07,2013-04-26 00:30:00,
2013-04-25 19:45:00,46.5,26.3,30.07,South,172,6.0,7.0,45,0.00,,,0.00,VWS V12.07,2013-04-26 00:45:00,
2013-04-25 20:00:00,46.5,26.3,30.07,South,172,6.0,7.0,45,0.00,,,0.00,VWS V12.07,2013-04-26 01:00:00,
2013-04-25 20:30:00,46.5,26.3,30.04,South,172,6.0,6.0,45,0.00,,,0.00,VWS V12.07,2013-04-26 01:30:00,
2013-04-25 20:45:00,46.5,26.3,30.05,South,172,6.0,6.0,45,0.00,,,0.00,VWS V12.07,2013-04-26 01:45:00,
2013-04-25 21:00:00,46.5,26.3,30.05,South,172,6.0,6.0,45,0.00,,,0.00,VWS V12.07,2013-04-26 02:00:00,
2013-04-25 21:30:00,46.5,26.3,30.06,South,172,6.0,6.0,45,0.00,,,0.00,VWS V12.07,2013-04-26 02:30:00,
2013-04-25 21:45:00,46.5,26.3,30.06,South,172,6.0,6.0,45,0.00,,,0.00,VWS V12.07,2013-04-26 02:45:00,
2013-04-25 22:00:00,46.5,26.3,30.07,South,172,6.0,6.0,45,0.00,,,0.00,VWS V12.07,2013-04-26 03:00:00,
2013-04-25 22:30:00,46.5,26.3,30.05,South,172,6.0,6.0,45,0.00,,,0.00,VWS V12.07,2013-04-26 03:30:00,
2013-04-25 22:45:00,46.5,26.3,30.06,South,172,6.0,6.0,45,0.00,,,0.00,VWS V12.07,2013-04-26 03:45:00,
2013-04-25 23:00:00,46.5,26.3,30.06,South,172,6.0,6.0,45,0.00,,,0.00,VWS V12.07,2013-04-26 04:00:00,
2013-04-25 23:30:00,46.5,26.3,30.05,South,172,6.0,6.0,45,0.00,,,0.00,VWS V12.07,2013-04-26 04:30:00,
2013-04-25 23:45:00,46.5,26.3,30.05,South,172,6.0,6.0,45,0.00,,,0.00,VWS V12.07,2013-04-26 04:45:00,